Página principal
METAR-TAF:

METAR-TAF

Aeroportos :

Iliamna, Alasca, Estados Unidos

latitude: 59-45N, longitude: 154-54W, altura: 57 m

Observação actual do tempo

O boletim foi feito há 1 hora e 8 minutos, às 17:53 UTC
Vento calmo
Temperatura 10°C
Humidade 93%
Pressão 1018 hPa
Visibilidade: 16.1 km
Céu limpo

METAR: PAIL 171753Z 00000KT 10SM CLR 10/09 A3005 RMK AO2 SLP177 T01000089 10106 20067 50002 $

Hora: 11:01 (19:01 UTC)

Previsão

O boletim foi feito há 1 hora e 21 minutos, às 17:40 UTC
Previsão válida de 17 às 18 UTC a 18 às 18 UTC
Vento 4 kt de su-sudoeste
Visibilidade: 10 km
Poucas nuvensa uma altura de 300 ft
A partir de 17 às 1900 UTC
Vento 9 kt de sul
Visibilidade: 10 km
Poucas nuvensa uma altura de 10000 ft
A partir de 18 às 0600 UTC
Vento 5 kt de su-sudeste
Visibilidade: 10 km
Céu limpo

TAF: PAIL 171740Z 1718/1818 20004KT P6SM FEW003 FM171900 19009KT P6SM FEW100 FM180600 15005KT P6SM SKC

Observações e previsões do tempo de mais de 4000 aeroportos (mensagens METAR e TAF).

As estações disponíveis são os pontos amarelos e vermelhos sobre o mapa.

Mova o rato sobre o mapa para ver o nome da estação.

Depois clique no ponto para visualizar as observações e previsões meteorológicas.

Para alterar o mapa : clique nos botões verdes com uma cruz preta para aumentar o zoom; no botão verde com uma pitada de zoom; ou nas setas verdes para mapas adjacentes.


METAR-TAF: